Domov               UVHVVR             MKGP            O straneh              
ZDRAVSTVENO VARSTVO RASTLIN
  MREŽA AGROMET. POSTAJ
 ► PROGNOSTIČNA OBVESTILA
AGROMETEOROLOŠKI PODATKI -
ARSO
OBVLADOVANJE TVEGANJ ZARADI
NEUGODNIH VREMENSKIH RAZMER
  ► NARAVNE NESREČE
  ► SUŠA/MOČA
  ► NAMAKANJE
  ► ŽLED (gozdarstvo)
KARTOGRAFSKI PRIKAZI
SPLETNE POVEZAVE
PROJEKTI IN PUBLIKACIJE

AGROMETEOROLOŠKA MREŽA: VREMENSKE POSTAJE IN FENOLOŠKA OPAZOVANJA

Pregled podatkov za lokacijo Šlovrenc, meteorološka postaja 859088

Pregled senzorjev na lokaciji

ID Ime Zadnja
vrednost
Datum
zadnje
spremembe
Tip
senzorja
4325 Omočenost lista (U) 10 U 23.7.2018 05:00 A730WET
3976 Padavine (mm) 0 mm 23.7.2018 05:00 Rain-O-Matic
3974 Relativna vlaga 2 m (% RH) 100 % RH 23.7.2018 05:00 50YA
3973 Temperatura 2 m (°C) 15,97 °C 23.7.2018 05:00 50YA

Pregled podatkov zadnjih 24 ur

Zap.
št.
Datum in čas Šlovrenc
Omočenost
lista
Padavine Relativna
vlaga
2
m
Temperatura
2
m
1 23.7.2018 05:30
2 23.7.2018 05:00
3 23.7.2018 04:30
4 23.7.2018 04:00 10 0 100 16
5 23.7.2018 03:30 10 0 100 16,5
6 23.7.2018 03:00 10 0 100 16,8
7 23.7.2018 02:30 10 0 100 17
8 23.7.2018 02:00 10 0 100 17,3
9 23.7.2018 01:30 10 0,2 100 17,8
10 23.7.2018 01:00 10 0 100 18,2
11 23.7.2018 00:30 10 0 100 18,4
12 23.7.2018 00:00 10 0,2 100 18,5
13 22.7.2018 23:30 10 0 100 18,7
14 22.7.2018 23:00 10 0 100 18,7
15 22.7.2018 22:30 10 0 100 18,7
16 22.7.2018 22:00 10 0 100 18,9
17 22.7.2018 21:30 10 0,2 100 18,9
18 22.7.2018 21:00 10 0 100 18,8
19 22.7.2018 20:30 10 0 100 18,6
20 22.7.2018 20:00 10 0 100 18,8
21 22.7.2018 19:30 10 0,2 100 19
22 22.7.2018 19:00 10 0,2 99,6 19,1
23 22.7.2018 18:30 10 0,2 99,3 19,1
24 22.7.2018 18:00 10 0,6 99,5 19,3
25 22.7.2018 17:30 10 0 99,9 19,5
26 22.7.2018 17:00 10 0,2 99,8 19,6
27 22.7.2018 16:30 10 0 99,3 19,5
28 22.7.2018 16:00 10 0 98,8 19,6
29 22.7.2018 15:30 10 0,8 98,2 19,8
30 22.7.2018 15:00 10 3,8 95,9 20,5
31 22.7.2018 14:30 10 0,4 98,5 21
32 22.7.2018 14:00 3 2,4 73,3 25,2
33 22.7.2018 13:30 0 0 48,5 31,8
34 22.7.2018 13:00 0 0 47 32,7
35 22.7.2018 12:30 0 0 48,9 30,9
36 22.7.2018 12:00 0 0 51,1 30,4
37 22.7.2018 11:30 0 0 49,6 31,8
38 22.7.2018 11:00 0 0 52,9 31,2
39 22.7.2018 10:30 0 0 61,2 28,2
40 22.7.2018 10:00 0 0 67,6 25,8
41 22.7.2018 09:30 0 0 68,4 25,6
42 22.7.2018 09:00 0 0 69,8 24,7
43 22.7.2018 08:30 0 0 72,5 23,7
44 22.7.2018 08:00 0 0 69,8 24,3
45 22.7.2018 07:30 0 0 73 23,8
46 22.7.2018 07:00 0 0 80,5 21,3
47 22.7.2018 06:30 1 0 93 19
48 22.7.2018 06:00 2 0 96,9 17,5
© 2011 Ministrstvo za kmetijstvo, gozdarstvo in prehrano. Vse pravice pridržane.